Time;durP1;ratioP1;P1;durP2;ratioP2;P2;SDS_P1;SDS_P2;PMS_P1;PMS_P2;Temp;Humidity;BMP_temperature;BMP_pressure;BME280_temperature;BME280_humidity;BME280_pressure;Samples;Min_cycle;Max_cycle;Signal;HPM_P1;HPM_P2
2024/03/31 00:01:32;;;;;;;1.90;0.60;;;8.10;99.90;;;7.49;100.00;98735.63;4218242;28;20027;-79
2024/03/31 00:03:35;;;;;;;1.13;0.50;;;8.20;99.90;;;7.60;100.00;98753.50;4218689;28;20039;-79
2024/03/31 00:05:36;;;;;;;2.08;0.90;;;8.30;99.90;;;7.73;100.00;98764.16;4218802;28;20095;-78
2024/03/31 00:07:37;;;;;;;1.52;0.75;;;8.40;99.90;;;7.90;100.00;98758.66;4200687;28;20040;-78
2024/03/31 00:09:38;;;;;;;0.93;0.50;;;8.50;99.90;;;7.95;100.00;98753.63;4218605;28;20059;-79
2024/03/31 00:11:39;;;;;;;1.20;0.60;;;8.60;99.90;;;8.09;100.00;98761.47;4218582;28;20035;-78
2024/03/31 00:13:39;;;;;;;1.90;0.60;;;8.70;99.90;;;8.19;100.00;98753.25;4218788;28;20034;-78
2024/03/31 00:15:40;;;;;;;2.97;0.70;;;8.80;99.90;;;8.28;100.00;98758.22;4218682;28;20028;-78
2024/03/31 00:17:41;;;;;;;2.45;0.77;;;8.90;99.90;;;8.30;100.00;98755.41;4218496;28;20479;-79
2024/03/31 00:19:43;;;;;;;3.10;0.60;;;8.90;99.90;;;8.39;100.00;98754.28;4200951;28;20039;-78
2024/03/31 00:21:44;;;;;;;1.50;0.77;;;9.00;99.90;;;8.45;100.00;98758.78;4191685;28;20466;-79
2024/03/31 00:23:45;;;;;;;1.65;0.98;;;9.10;99.90;;;8.48;100.00;98758.41;4213979;28;20035;-79
2024/03/31 00:25:46;;;;;;;2.80;0.73;;;9.10;99.90;;;8.52;100.00;98750.91;4200395;28;20024;-78
2024/03/31 00:27:47;;;;;;;1.98;0.70;;;9.20;99.90;;;8.54;100.00;98746.31;4217787;28;20053;-78
2024/03/31 00:29:48;;;;;;;2.22;0.70;;;9.20;99.90;;;8.55;100.00;98746.09;4218524;28;20437;-78
2024/03/31 00:31:49;;;;;;;2.33;0.75;;;9.20;99.90;;;8.58;100.00;98743.09;4200500;28;20033;-78
2024/03/31 00:33:50;;;;;;;1.63;0.63;;;9.20;99.90;;;8.61;100.00;98731.38;4218394;28;20392;-78
2024/03/31 00:35:56;;;;;;;1.92;1.00;;;9.30;99.90;;;8.62;100.00;98723.31;4200555;28;20048;-78
2024/03/31 00:37:56;;;;;;;1.52;0.80;;;9.30;99.90;;;8.61;100.00;98726.94;4216918;28;20103;-79
2024/03/31 00:39:57;;;;;;;1.15;0.68;;;9.30;99.90;;;8.65;100.00;98727.38;4200417;28;20040;-78
2024/03/31 00:41:58;;;;;;;2.30;0.80;;;9.30;99.90;;;8.65;100.00;98720.31;4217973;28;20032;-79
2024/03/31 00:44:00;;;;;;;1.70;0.90;;;9.30;99.90;;;8.66;100.00;98721.13;4219177;28;20476;-79
2024/03/31 00:46:01;;;;;;;1.50;0.73;;;9.30;99.90;;;8.63;100.00;98724.13;4226051;28;20028;-79
2024/03/31 00:48:01;;;;;;;1.02;0.50;;;9.30;99.90;;;8.66;100.00;98729.00;4200433;28;20013;-79
2024/03/31 00:50:03;;;;;;;3.10;1.27;;;9.30;99.90;;;8.64;100.00;98716.03;4203611;28;20028;-79
2024/03/31 00:52:04;;;;;;;1.60;0.60;;;9.30;99.90;;;8.64;100.00;98716.03;4221842;28;20043;-79
2024/03/31 00:54:05;;;;;;;2.83;1.10;;;9.30;99.90;;;8.60;100.00;98714.78;4203902;28;20392;-79
2024/03/31 00:56:06;;;;;;;1.55;0.70;;;9.30;99.90;;;8.60;100.00;98719.25;4203914;28;20039;-79
2024/03/31 00:58:07;;;;;;;0.88;0.50;;;9.30;99.90;;;8.56;100.00;98716.19;4199631;28;20021;-78
2024/03/31 01:00:08;;;;;;;1.00;0.55;;;9.30;99.90;;;8.56;100.00;98713.56;4203989;28;20043;-79
2024/03/31 01:02:09;;;;;;;1.27;0.60;;;9.20;99.90;;;8.57;100.00;98715.19;4221631;28;20038;-79
2024/03/31 01:04:10;;;;;;;1.45;0.77;;;9.20;99.90;;;8.56;100.00;98705.69;4221561;28;20036;-79
2024/03/31 01:06:20;;;;;;;2.30;0.82;;;9.20;99.90;;;8.53;100.00;98705.25;4221481;28;20498;-78
2024/03/31 01:08:20;;;;;;;2.05;0.82;;;9.20;99.90;;;8.52;100.00;98701.81;4221556;28;20048;-78
2024/03/31 01:10:22;;;;;;;1.30;0.77;;;9.20;99.90;;;8.56;100.00;98704.88;4203626;28;20403;-78
2024/03/31 01:12:22;;;;;;;1.30;0.70;;;9.20;99.90;;;8.54;100.00;98699.78;4221236;28;20060;-78
2024/03/31 01:14:23;;;;;;;1.58;0.85;;;9.20;99.90;;;8.54;100.00;98705.06;4203365;28;20484;-78
2024/03/31 01:16:24;;;;;;;2.25;0.95;;;9.20;99.90;;;8.49;100.00;98696.94;4203551;28;20036;-79
2024/03/31 01:18:26;;;;;;;1.67;0.80;;;9.20;99.90;;;8.48;100.00;98700.59;4203371;28;20051;-79
2024/03/31 01:20:26;;;;;;;1.40;0.88;;;9.10;99.90;;;8.47;100.00;98706.84;4203332;28;20089;-79
2024/03/31 01:22:28;;;;;;;2.00;0.70;;;9.10;99.90;;;8.44;100.00;98694.09;4189682;28;20475;-78
2024/03/31 01:24:29;;;;;;;1.70;0.77;;;9.10;99.90;;;8.42;100.00;98690.84;4186585;28;20120;-79
2024/03/31 01:26:30;;;;;;;2.55;0.55;;;9.10;99.90;;;8.44;100.00;98690.66;4203262;28;20017;-79
2024/03/31 01:28:33;;;;;;;1.10;0.63;;;9.10;99.90;;;8.48;100.00;98684.81;4221068;28;20031;-79
2024/03/31 01:30:34;;;;;;;4.60;1.15;;;9.10;99.90;;;8.47;100.00;98682.38;4221062;28;20076;-79
2024/03/31 01:32:35;;;;;;;1.40;0.90;;;9.10;99.90;;;8.47;100.00;98677.94;4221393;28;20031;-79
2024/03/31 01:34:36;;;;;;;1.60;0.82;;;9.10;99.90;;;8.49;100.00;98656.72;4221250;28;20024;-79
2024/03/31 01:36:37;;;;;;;1.13;0.70;;;9.20;99.90;;;8.51;100.00;98673.91;4202932;28;20056;-78
2024/03/31 01:38:38;;;;;;;1.38;0.80;;;9.20;99.90;;;8.51;100.00;98658.13;4220807;28;20040;-78
2024/03/31 01:40:39;;;;;;;1.90;0.80;;;9.20;99.90;;;8.51;100.00;98676.53;4221091;28;20115;-78
2024/03/31 01:42:40;;;;;;;3.08;0.98;;;9.20;99.90;;;8.51;100.00;98670.50;4220748;28;20395;-78
2024/03/31 01:44:41;;;;;;;1.30;0.80;;;9.10;99.90;;;8.45;100.00;98673.88;4220985;28;20053;-78
2024/03/31 01:46:41;;;;;;;2.30;0.80;;;9.10;99.90;;;8.38;100.00;98673.84;4220903;28;20151;-78
2024/03/31 01:48:42;;;;;;;2.60;1.40;;;9.10;99.90;;;8.34;100.00;98673.41;4221027;28;20089;-78
2024/03/31 01:50:43;;;;;;;3.75;1.98;;;9.00;99.90;;;8.33;100.00;98673.63;4220949;28;20077;-78
2024/03/31 01:52:44;;;;;;;4.15;2.40;;;9.00;99.90;;;8.29;100.00;98670.56;4220822;28;20086;-78
2024/03/31 01:54:45;;;;;;;5.95;2.20;;;9.00;99.90;;;8.27;100.00;98663.84;4220746;28;20031;-78
2024/03/31 01:56:46;;;;;;;3.80;2.08;;;9.00;99.90;;;8.20;100.00;98658.53;4220529;28;20441;-78
2024/03/31 01:58:47;;;;;;;1.95;1.20;;;8.90;99.90;;;8.20;100.00;98649.84;4220611;28;20487;-79
2024/03/31 02:00:48;;;;;;;2.45;1.17;;;8.90;99.90;;;8.17;100.00;98648.41;4220413;28;20032;-78
2024/03/31 02:02:48;;;;;;;3.15;1.27;;;8.90;99.90;;;8.13;100.00;98641.09;4220495;28;20032;-78
2024/03/31 02:04:49;;;;;;;2.03;1.08;;;8.80;99.90;;;8.12;100.00;98642.91;4220505;28;20028;-78
2024/03/31 02:06:50;;;;;;;4.35;1.40;;;8.80;99.90;;;8.12;100.00;98647.38;4202746;28;20024;-78
2024/03/31 02:08:51;;;;;;;1.58;0.98;;;8.80;99.90;;;8.13;100.00;98630.59;4220613;28;20484;-78
2024/03/31 02:10:52;;;;;;;2.53;0.90;;;8.80;99.90;;;8.07;100.00;98633.97;4220562;28;20492;-78
2024/03/31 02:12:52;;;;;;;2.10;1.05;;;8.80;99.90;;;8.10;100.00;98620.47;4202261;28;20087;-78
2024/03/31 02:14:53;;;;;;;1.63;0.80;;;8.80;99.90;;;8.12;100.00;98613.22;4220572;28;20032;-78
2024/03/31 02:16:55;;;;;;;2.13;0.80;;;8.80;99.90;;;8.14;100.00;98614.66;4202528;28;20084;-78
2024/03/31 02:18:56;;;;;;;1.80;1.38;;;8.80;99.90;;;8.14;100.00;98624.34;4220554;28;20031;-79
2024/03/31 02:20:57;;;;;;;2.88;0.90;;;8.80;99.90;;;8.11;100.00;98606.34;4220273;28;20035;-78
2024/03/31 02:22:58;;;;;;;1.73;1.00;;;8.80;99.90;;;8.11;100.00;98603.72;4220359;28;20028;-79
2024/03/31 02:24:58;;;;;;;1.55;0.90;;;8.80;99.90;;;8.10;100.00;98595.03;4202496;28;20031;-78
2024/03/31 02:26:59;;;;;;;1.52;1.05;;;8.80;99.90;;;8.08;100.00;98598.84;4219946;28;20024;-78
2024/03/31 02:29:02;;;;;;;2.85;1.40;;;8.80;99.90;;;8.04;100.00;98597.59;4220077;28;20032;-79
2024/03/31 02:31:03;;;;;;;2.28;1.38;;;8.70;99.90;;;7.93;100.00;98595.50;4220302;28;20076;-79
2024/03/31 02:33:04;;;;;;;3.03;1.40;;;8.70;99.90;;;7.82;100.00;98584.53;4220366;28;20024;-78
2024/03/31 02:35:05;;;;;;;2.58;1.60;;;8.60;99.90;;;7.74;100.00;98581.25;4202122;28;20093;-79
2024/03/31 02:37:06;;;;;;;1.95;1.02;;;8.50;99.90;;;7.64;100.00;98588.66;4219856;28;20048;-78
2024/03/31 02:39:07;;;;;;;2.22;1.35;;;8.40;99.90;;;7.53;100.00;98579.47;4219879;28;20035;-78
2024/03/31 02:41:08;;;;;;;2.70;1.65;;;8.30;99.90;;;7.47;100.00;98582.84;4220098;28;20391;-78
2024/03/31 02:43:08;;;;;;;2.10;1.40;;;8.20;99.90;;;7.37;100.00;98569.25;4219707;28;20037;-78
2024/03/31 02:45:09;;;;;;;3.15;1.80;;;8.10;99.90;;;7.33;100.00;98570.63;4219709;28;20020;-78
2024/03/31 02:47:10;;;;;;;4.60;1.90;;;8.10;99.90;;;7.30;100.00;98575.41;4220070;28;20038;-78
2024/03/31 02:49:11;;;;;;;3.05;1.98;;;8.00;99.90;;;7.24;100.00;98563.88;4201819;28;20553;-78
2024/03/31 02:51:12;;;;;;;2.70;1.70;;;7.90;99.90;;;7.22;100.00;98558.03;4219944;28;20020;-78
2024/03/31 02:53:13;;;;;;;4.18;2.22;;;7.90;99.90;;;7.19;100.00;98561.84;4219874;28;20035;-78
2024/03/31 02:55:14;;;;;;;2.50;2.00;;;7.90;99.90;;;7.20;100.00;98557.38;4202079;28;20028;-79
2024/03/31 02:57:14;;;;;;;5.78;2.30;;;7.90;99.90;;;7.17;100.00;98555.13;4219711;28;20561;-79
2024/03/31 02:59:15;;;;;;;2.88;1.92;;;7.90;99.90;;;7.30;100.00;98557.06;4201887;28;20025;-78
2024/03/31 03:01:16;;;;;;;4.00;1.90;;;7.90;99.90;;;7.30;100.00;98555.25;4219752;28;20031;-78
2024/03/31 03:03:17;;;;;;;3.20;2.08;;;7.90;99.90;;;7.32;100.00;98550.63;4201914;28;20021;-78
2024/03/31 03:05:18;;;;;;;3.05;2.28;;;8.00;99.90;;;7.33;100.00;98541.78;4201800;28;20029;-78
2024/03/31 03:07:19;;;;;;;2.10;1.65;;;8.00;99.90;;;7.37;100.00;98543.03;4219842;28;20027;-78
2024/03/31 03:09:20;;;;;;;3.38;1.92;;;8.00;99.90;;;7.37;100.00;98548.28;4219623;28;20035;-78
2024/03/31 03:11:21;;;;;;;3.17;2.05;;;8.00;99.90;;;7.37;100.00;98543.03;4218544;28;20032;-78
2024/03/31 03:13:24;;;;;;;3.08;1.95;;;8.00;99.90;;;7.37;100.00;98536.97;4201456;28;20408;-78
2024/03/31 03:15:25;;;;;;;2.15;1.55;;;8.00;99.90;;;7.33;100.00;98536.53;4219538;28;20035;-79
2024/03/31 03:17:27;;;;;;;3.60;1.90;;;8.00;99.90;;;7.28;100.00;98532.84;4218195;28;20083;-79
2024/03/31 03:19:27;;;;;;;2.05;1.38;;;8.00;99.90;;;7.22;100.00;98529.19;4219508;28;20089;-79
2024/03/31 03:21:29;;;;;;;4.53;1.75;;;7.90;99.90;;;7.16;100.00;98519.44;4201490;28;20032;-79
2024/03/31 03:23:31;;;;;;;4.68;1.80;;;7.90;99.90;;;7.17;100.00;98521.03;4219291;28;20066;-78
2024/03/31 03:25:32;;;;;;;1.75;1.45;;;7.80;99.90;;;7.16;100.00;98515.00;4201603;28;20381;-79
2024/03/31 03:27:33;;;;;;;2.40;1.88;;;7.80;99.90;;;7.13;100.00;98502.28;4219040;28;20061;-78
2024/03/31 03:29:34;;;;;;;2.22;1.70;;;7.80;99.90;;;7.20;100.00;98513.63;4219352;28;20028;-78
2024/03/31 03:31:35;;;;;;;2.42;1.88;;;7.80;99.90;;;7.21;100.00;98509.19;4219271;28;20461;-78
2024/03/31 03:33:35;;;;;;;2.75;1.80;;;7.80;99.90;;;7.24;100.00;98506.19;4219180;28;20445;-79
2024/03/31 03:35:37;;;;;;;6.60;2.10;;;7.90;99.90;;;7.29;100.00;98497.78;4201048;28;20511;-78
2024/03/31 03:37:38;;;;;;;4.45;1.60;;;7.90;99.90;;;7.30;100.00;98494.13;4201139;28;20086;-78
2024/03/31 03:39:39;;;;;;;4.50;1.98;;;8.00;99.90;;;7.30;100.00;98489.69;4184482;28;20028;-78
2024/03/31 03:41:40;;;;;;;2.40;1.60;;;8.00;99.90;;;7.28;100.00;98481.22;4218427;28;20036;-78
2024/03/31 03:43:40;;;;;;;2.00;1.70;;;8.00;99.90;;;7.34;100.00;98490.94;4218930;28;20028;-78
2024/03/31 03:45:41;;;;;;;3.78;1.60;;;8.00;99.90;;;7.32;100.00;98481.66;4219215;28;20020;-78
2024/03/31 03:47:42;;;;;;;3.55;1.90;;;8.00;99.90;;;7.33;100.00;98473.59;4201082;28;20419;-78
2024/03/31 03:49:43;;;;;;;2.28;1.95;;;8.00;99.90;;;7.29;100.00;98477.56;4219005;28;20475;-78
2024/03/31 03:51:44;;;;;;;5.47;1.67;;;8.00;99.90;;;7.26;100.00;98477.16;4218858;28;20046;-78
2024/03/31 03:53:45;;;;;;;2.78;1.90;;;8.00;99.90;;;7.20;100.00;98468.22;4218986;28;20024;-78
2024/03/31 03:55:46;;;;;;;3.83;1.95;;;8.00;99.90;;;7.21;100.00;98481.16;4219129;28;20024;-79
2024/03/31 03:57:47;;;;;;;3.97;1.70;;;7.90;99.90;;;7.16;100.00;98467.00;4200735;28;20028;-79
2024/03/31 03:59:47;;;;;;;2.78;1.80;;;7.90;99.90;;;7.21;100.00;98469.84;4218754;28;20384;-79
2024/03/31 04:01:49;;;;;;;2.83;1.80;;;7.90;99.90;;;7.28;100.00;98480.41;4200811;28;20474;-79
2024/03/31 04:03:49;;;;;;;4.28;1.73;;;8.00;99.90;;;7.30;100.00;98481.84;4218808;28;20111;-79
2024/03/31 04:05:58;;;;;;;2.25;1.50;;;8.00;99.90;;;7.34;100.00;98477.84;4218804;28;20062;-78
2024/03/31 04:07:59;;;;;;;2.95;1.77;;;8.00;99.90;;;7.33;100.00;98476.22;4218673;28;20035;-78
2024/03/31 04:09:59;;;;;;;3.22;2.00;;;8.00;99.90;;;7.37;100.00;98485.31;4200890;28;20020;-79
2024/03/31 04:12:00;;;;;;;2.53;1.48;;;8.00;99.90;;;7.40;100.00;98482.31;4183872;28;20040;-79
2024/03/31 04:14:01;;;;;;;2.97;1.77;;;8.10;99.90;;;7.40;100.00;98474.47;4218722;28;20020;-79
2024/03/31 04:16:02;;;;;;;2.22;1.52;;;8.10;99.90;;;7.43;100.00;98475.88;4218607;28;20039;-78
2024/03/31 04:18:03;;;;;;;4.22;1.50;;;8.10;99.90;;;7.41;100.00;98473.44;4218724;28;20522;-79
2024/03/31 04:20:05;;;;;;;2.33;1.45;;;8.10;99.90;;;7.38;100.00;98465.16;4218603;28;20035;-79
2024/03/31 04:22:06;;;;;;;2.78;2.10;;;8.10;99.90;;;7.37;100.00;98459.09;4217194;28;20020;-79
2024/03/31 04:24:07;;;;;;;2.42;1.63;;;8.10;99.90;;;7.35;100.00;98461.09;4218453;28;20395;-79
2024/03/31 04:26:08;;;;;;;2.50;1.65;;;8.00;99.90;;;7.31;100.00;98452.00;4200886;28;20027;-79
2024/03/31 04:28:09;;;;;;;2.42;1.45;;;8.00;99.90;;;7.24;100.00;98449.31;4218209;28;20046;-79
2024/03/31 04:30:10;;;;;;;2.08;1.60;;;8.00;99.90;;;7.22;100.00;98450.50;4218503;28;20032;-79
2024/03/31 04:32:11;;;;;;;2.47;1.70;;;8.00;99.90;;;7.19;100.00;98437.78;4200471;28;20538;-79
2024/03/31 04:34:12;;;;;;;3.55;1.50;;;7.90;99.90;;;7.17;100.00;98431.91;4200682;28;20039;-79
2024/03/31 04:36:14;;;;;;;2.33;1.60;;;7.90;99.90;;;7.19;100.00;98435.16;4200445;28;20059;-79
2024/03/31 04:38:15;;;;;;;2.55;1.60;;;7.90;99.90;;;7.16;100.00;98438.16;4200590;28;20025;-79
2024/03/31 04:40:16;;;;;;;2.22;1.60;;;7.90;99.90;;;7.11;100.00;98440.53;4215781;28;20484;-79
2024/03/31 04:42:16;;;;;;;2.78;1.75;;;7.80;99.90;;;7.06;100.00;98425.38;4218125;28;20384;-79
2024/03/31 04:44:17;;;;;;;2.00;1.40;;;7.80;99.90;;;6.94;100.00;98426.91;4218452;28;20023;-79
2024/03/31 04:46:18;;;;;;;3.47;1.65;;;7.70;99.90;;;6.83;100.00;98418.75;4218319;28;20107;-78
2024/03/31 04:48:19;;;;;;;2.60;1.83;;;7.60;99.90;;;6.79;100.00;98427.97;4200429;28;20025;-79
2024/03/31 04:50:21;;;;;;;2.20;1.70;;;7.50;99.90;;;6.73;100.00;98418.25;4218424;28;20028;-79
2024/03/31 04:52:24;;;;;;;2.53;1.75;;;7.50;99.90;;;6.77;100.00;98424.72;4200453;28;20082;-79
2024/03/31 04:54:25;;;;;;;3.17;1.77;;;7.50;99.90;;;6.82;100.00;98422.34;4218306;28;20020;-79
2024/03/31 04:56:25;;;;;;;3.25;1.52;;;7.50;99.90;;;6.84;100.00;98421.16;4206222;28;20078;-79
2024/03/31 04:58:27;;;;;;;2.28;1.77;;;7.50;99.90;;;6.91;100.00;98423.84;4218384;28;20039;-79
2024/03/31 05:00:28;;;;;;;4.47;1.98;;;7.60;99.90;;;6.96;100.00;98424.88;4200264;28;20060;-79
2024/03/31 05:02:29;;;;;;;2.78;2.00;;;7.60;99.90;;;7.02;100.00;98425.94;4218199;28;20032;-79
2024/03/31 05:04:32;;;;;;;2.53;1.75;;;7.70;99.90;;;7.04;100.00;98410.84;4217632;28;20024;-79
2024/03/31 05:06:33;;;;;;;2.33;1.70;;;7.70;99.90;;;7.08;100.00;98426.00;4215131;28;20028;-78
2024/03/31 05:08:34;;;;;;;3.30;2.30;;;7.70;99.90;;;7.10;100.00;98423.19;4215536;28;20404;-78
2024/03/31 05:10:35;;;;;;;2.38;1.70;;;7.70;99.90;;;7.11;100.00;98416.94;4216309;28;20035;-79
2024/03/31 05:12:36;;;;;;;3.75;1.92;;;7.80;99.90;;;7.13;100.00;98417.56;4217378;28;20057;-79
2024/03/31 05:14:37;;;;;;;3.08;1.98;;;7.80;99.90;;;7.10;100.00;98413.53;4217546;28;20156;-78
2024/03/31 05:16:37;;;;;;;2.38;1.77;;;7.80;99.90;;;7.14;100.00;98421.78;4199695;28;20051;-79
2024/03/31 05:18:38;;;;;;;2.95;1.80;;;7.80;99.90;;;7.16;100.00;98414.56;4218129;28;20058;-79
2024/03/31 05:20:39;;;;;;;2.50;1.85;;;7.80;99.90;;;7.16;100.00;98410.16;4217884;28;20027;-79
2024/03/31 05:22:40;;;;;;;3.60;1.63;;;7.80;99.90;;;7.16;100.00;98412.75;4204877;28;20068;-79
2024/03/31 05:24:43;;;;;;;1.90;1.42;;;7.80;99.90;;;7.17;100.00;98408.31;4218213;28;20020;-79
2024/03/31 05:26:44;;;;;;;2.83;1.95;;;7.90;99.90;;;7.18;100.00;98412.56;4200082;28;20067;-79
2024/03/31 05:28:44;;;;;;;4.55;2.55;;;7.90;99.90;;;7.20;100.00;98402.69;4188159;28;20041;-79
2024/03/31 05:30:45;;;;;;;2.58;1.75;;;7.90;99.90;;;7.21;100.00;98402.50;4201395;28;20020;-79
2024/03/31 05:32:46;;;;;;;5.82;2.22;;;7.90;99.90;;;7.24;100.00;98402.13;4183716;28;20075;-79
2024/03/31 05:34:47;;;;;;;2.83;2.22;;;7.90;99.90;;;7.26;100.00;98395.88;4184411;28;20484;-79
2024/03/31 05:36:48;;;;;;;2.67;1.73;;;7.90;99.90;;;7.27;100.00;98393.06;4204086;28;20500;-78
2024/03/31 05:38:49;;;;;;;2.58;2.05;;;7.90;99.90;;;7.28;100.00;98396.50;4195123;28;20561;-79
2024/03/31 05:40:49;;;;;;;2.83;1.92;;;7.90;99.90;;;7.26;100.00;98399.28;4204361;28;20028;-79
2024/03/31 05:42:51;;;;;;;4.05;2.10;;;8.00;99.90;;;7.28;100.00;98396.50;4203928;28;20025;-79
2024/03/31 05:44:51;;;;;;;3.85;1.98;;;8.00;99.90;;;7.30;100.00;98394.47;4204170;28;20020;-79
2024/03/31 05:46:52;;;;;;;4.68;2.80;;;8.00;99.90;;;7.30;100.00;98389.25;4204090;28;20027;-79
2024/03/31 05:48:53;;;;;;;2.55;2.05;;;8.00;99.90;;;7.34;100.00;98388.69;4204094;28;20029;-79
2024/03/31 05:50:54;;;;;;;3.97;1.90;;;8.00;99.90;;;7.35;100.00;98392.91;4186253;28;20063;-78
2024/03/31 05:52:55;;;;;;;3.15;1.92;;;8.00;99.90;;;7.32;100.00;98392.50;4204018;28;20505;-79
2024/03/31 05:54:55;;;;;;;5.78;2.38;;;8.00;99.90;;;7.37;100.00;98388.28;4203962;28;20028;-79
2024/03/31 05:56:56;;;;;;;3.25;2.60;;;8.00;99.90;;;7.38;100.00;98392.50;4203768;28;20020;-78
2024/03/31 05:58:57;;;;;;;4.10;2.33;;;8.10;99.90;;;7.40;100.00;98393.16;4204145;28;20035;-78
2024/03/31 06:00:58;;;;;;;2.70;1.67;;;8.10;99.90;;;7.42;100.00;98399.00;4202653;28;20028;-79
2024/03/31 06:02:59;;;;;;;2.60;1.77;;;8.10;99.90;;;7.40;100.00;98390.53;4203835;28;20035;-79
2024/03/31 06:05:00;;;;;;;3.03;2.20;;;8.10;99.90;;;7.41;100.00;98394.75;4202927;28;20024;-79
2024/03/31 06:07:01;;;;;;;3.67;2.42;;;8.10;99.90;;;7.42;100.00;98388.50;4203672;28;20032;-79
2024/03/31 06:09:02;;;;;;;3.33;2.10;;;8.10;99.90;;;7.50;100.00;98396.22;4203833;28;20028;-77
2024/03/31 06:11:03;;;;;;;5.68;2.30;;;8.10;99.90;;;7.53;100.00;98400.25;4203574;28;20039;-78
2024/03/31 06:13:05;;;;;;;4.30;2.53;;;8.20;99.90;;;7.56;100.00;98399.88;4203633;28;20025;-78
2024/03/31 06:15:06;;;;;;;6.28;2.30;;;8.20;99.90;;;7.59;100.00;98397.69;4185873;28;20032;-78
2024/03/31 06:17:07;;;;;;;4.57;2.15;;;8.30;99.90;;;7.66;100.00;98397.72;4185970;28;20582;-78
2024/03/31 06:19:07;;;;;;;4.30;2.67;;;8.30;99.90;;;7.71;100.00;98393.50;4203169;28;20041;-79
2024/03/31 06:21:09;;;;;;;3.30;2.05;;;8.40;99.90;;;7.77;100.00;98395.34;4203498;28;20024;-78
2024/03/31 06:23:10;;;;;;;2.67;1.73;;;8.40;99.90;;;7.85;100.00;98404.88;4185741;28;20080;-79
2024/03/31 06:25:11;;;;;;;4.28;2.30;;;8.50;99.90;;;7.89;100.00;98400.03;4203643;28;20044;-79
2024/03/31 06:27:12;;;;;;;2.40;1.67;;;8.50;99.90;;;7.92;100.00;98394.38;4203152;28;20025;-79
2024/03/31 06:29:13;;;;;;;3.30;1.85;;;8.60;99.90;;;7.92;100.00;98399.63;4185888;28;20040;-78
2024/03/31 06:31:13;;;;;;;3.22;2.17;;;8.60;99.90;;;7.92;100.00;98399.63;4203373;28;20032;-77
2024/03/31 06:33:15;;;;;;;4.07;2.30;;;8.60;99.90;;;7.89;100.00;98400.03;4203568;28;20054;-78
2024/03/31 06:35:16;;;;;;;2.38;1.90;;;8.60;99.90;;;7.82;100.00;98395.56;4203427;28;20082;-78
2024/03/31 06:37:18;;;;;;;3.65;2.42;;;8.60;99.90;;;7.77;100.00;98403.22;4190200;28;20041;-79
2024/03/31 06:39:18;;;;;;;4.13;2.22;;;8.50;99.90;;;7.72;100.00;98395.13;4203334;28;20017;-79
2024/03/31 06:41:20;;;;;;;3.30;2.17;;;8.50;99.90;;;7.73;100.00;98407.25;4202999;28;20553;-78
2024/03/31 06:43:20;;;;;;;2.45;1.92;;;8.50;99.90;;;7.72;100.00;98404.81;4185351;28;20441;-78
2024/03/31 06:45:21;;;;;;;3.83;2.05;;;8.40;99.90;;;7.68;100.00;98401.75;4203159;28;20036;-78
2024/03/31 06:47:22;;;;;;;4.10;2.65;;;8.40;99.90;;;7.72;100.00;98400.38;4185582;28;20029;-78
2024/03/31 06:49:23;;;;;;;3.17;2.50;;;8.40;99.90;;;7.70;100.00;98397.16;4202032;28;20032;-78
2024/03/31 06:51:24;;;;;;;2.95;2.22;;;8.40;99.90;;;7.71;100.00;98401.38;4185340;28;20443;-78
2024/03/31 06:53:25;;;;;;;3.97;2.05;;;8.40;99.90;;;7.76;100.00;98396.34;4203157;28;20051;-78
2024/03/31 06:55:25;;;;;;;4.63;2.40;;;8.40;99.90;;;7.86;100.00;98408.28;4203164;28;20025;-78
2024/03/31 06:57:26;;;;;;;3.22;2.30;;;8.40;99.90;;;7.93;100.00;98401.28;4202822;28;20032;-79
2024/03/31 06:59:27;;;;;;;3.47;2.53;;;8.60;99.90;;;8.05;100.00;98399.69;4202990;28;20024;-79
2024/03/31 07:01:28;;;;;;;2.75;2.03;;;8.60;99.90;;;8.18;100.00;98403.16;4192887;28;20029;-78
2024/03/31 07:03:29;;;;;;;2.60;2.03;;;8.80;99.90;;;8.24;100.00;98409.47;4203096;28;20029;-78
2024/03/31 07:05:30;;;;;;;3.60;1.90;;;8.90;99.90;;;8.30;100.00;98406.88;4202969;28;20079;-79
2024/03/31 07:07:30;;;;;;;3.78;1.90;;;8.90;99.90;;;8.38;100.00;98405.06;4203054;28;20062;-79
2024/03/31 07:09:31;;;;;;;5.32;1.90;;;9.00;99.90;;;8.42;100.00;98401.06;4184759;28;20029;-78
2024/03/31 07:11:33;;;;;;;3.90;2.13;;;9.10;99.90;;;8.48;100.00;98408.13;4190642;28;20031;-78
2024/03/31 07:13:33;;;;;;;2.47;1.80;;;9.20;99.90;;;8.48;100.00;98401.06;4202836;28;20039;-80
2024/03/31 07:15:34;;;;;;;4.40;1.95;;;9.20;99.90;;;8.53;100.00;98400.47;4202716;28;20492;-77
2024/03/31 07:17:36;;;;;;;3.05;1.95;;;9.30;99.90;;;8.54;100.00;98391.56;4184890;28;20055;-79
2024/03/31 07:19:37;;;;;;;5.32;2.10;;;9.30;99.90;;;8.53;100.00;98390.75;4202722;28;20545;-79
2024/03/31 07:21:37;;;;;;;4.63;1.95;;;9.30;99.90;;;8.60;100.00;98393.41;4184826;28;20033;-79
2024/03/31 07:23:38;;;;;;;4.18;1.88;;;9.30;99.90;;;8.61;100.00;98384.50;4184847;28;20423;-79
2024/03/31 07:25:40;;;;;;;2.67;1.77;;;9.30;99.90;;;8.70;100.00;98402.50;4202540;28;20032;-79
2024/03/31 07:27:40;;;;;;;2.60;1.88;;;9.40;99.90;;;8.79;100.00;98389.97;4184546;28;20476;-78
2024/03/31 07:29:41;;;;;;;2.63;1.90;;;9.50;99.90;;;8.84;100.00;98398.84;4202719;28;20024;-78
2024/03/31 07:31:43;;;;;;;4.05;1.77;;;9.50;99.90;;;8.89;100.00;98406.97;4202481;28;20395;-79
2024/03/31 07:33:44;;;;;;;5.70;1.83;;;9.60;99.90;;;8.87;100.00;98395.00;4202504;28;20067;-79
2024/03/31 07:35:45;;;;;;;5.60;1.90;;;9.60;99.90;;;8.90;100.00;98405.13;4184535;28;20512;-79
2024/03/31 07:37:46;;;;;;;3.03;2.00;;;9.60;99.90;;;8.91;100.00;98401.50;4182644;28;20029;-79
2024/03/31 07:39:47;;;;;;;3.20;1.90;;;9.60;99.90;;;8.92;100.00;98399.69;4179195;28;20039;-80
2024/03/31 07:41:48;;;;;;;2.55;1.98;;;9.60;99.90;;;8.96;100.00;98399.06;4185385;28;20381;-78
2024/03/31 07:43:50;;;;;;;3.42;2.78;;;9.70;99.90;;;9.01;100.00;98390.56;4184658;28;20041;-81
2024/03/31 07:45:51;;;;;;;3.28;2.28;;;9.70;99.90;;;9.02;100.00;98402.72;4184703;28;20056;-82
2024/03/31 07:47:52;;;;;;;3.25;2.00;;;9.70;99.90;;;9.04;100.00;98404.13;4188635;28;20442;-82
2024/03/31 07:49:53;;;;;;;3.25;1.98;;;9.70;99.90;;;9.04;100.00;98398.88;4187245;28;20029;-82
2024/03/31 07:51:53;;;;;;;3.13;2.17;;;9.80;99.90;;;9.04;100.00;98405.94;4185800;28;20066;-81
2024/03/31 07:53:55;;;;;;;3.03;1.90;;;9.80;99.90;;;8.98;100.00;98398.88;4185603;28;20029;-81
2024/03/31 07:56:00;;;;;;;5.30;2.33;;;9.70;99.90;;;8.92;100.00;98389.97;4185607;28;20025;-81
2024/03/31 07:58:01;;;;;;;2.67;1.92;;;9.70;99.90;;;8.90;100.00;98374.38;4183664;28;20049;-82
2024/03/31 08:00:03;;;;;;;6.22;2.25;;;9.70;99.90;;;8.84;100.00;98374.41;4185649;28;20051;-82
2024/03/31 08:02:04;;;;;;;4.00;2.15;;;9.60;99.90;;;8.89;100.00;98377.25;4185089;28;20086;-81
2024/03/31 08:04:05;;;;;;;3.75;1.92;;;9.60;99.90;;;8.92;100.00;98376.03;4185349;28;20029;-81
2024/03/31 08:06:06;;;;;;;3.42;2.00;;;9.60;99.90;;;8.94;100.00;98364.28;4185341;28;20511;-80
2024/03/31 08:08:07;;;;;;;3.72;1.90;;;9.70;99.90;;;9.08;100.00;98362.47;4185753;28;20500;-81
2024/03/31 08:10:08;;;;;;;4.72;1.80;;;9.70;99.90;;;9.20;100.00;98364.25;4185487;28;20078;-80
2024/03/31 08:12:09;;;;;;;3.25;1.90;;;9.80;99.90;;;9.30;100.00;98364.63;4183918;28;20017;-81
2024/03/31 08:14:11;;;;;;;2.85;1.75;;;9.90;99.90;;;9.37;100.00;98368.09;4185311;28;20492;-81
2024/03/31 08:16:12;;;;;;;2.97;2.25;;;10.00;99.90;;;9.52;100.00;98367.84;4184290;28;20558;-82
2024/03/31 08:18:13;;;;;;;2.50;1.38;;;10.10;99.90;;;9.60;100.00;98353.63;4185398;28;20036;-80
2024/03/31 08:20:14;;;;;;;3.05;2.05;;;10.20;99.90;;;9.70;100.00;98359.28;4184132;28;20071;-82
2024/03/31 08:22:14;;;;;;;5.30;2.50;;;10.30;99.90;;;9.76;100.00;98361.88;4185228;28;20036;-81
2024/03/31 08:24:16;;;;;;;3.17;2.53;;;10.40;99.90;;;9.77;100.00;98357.41;4185101;28;20071;-81
2024/03/31 08:26:17;;;;;;;3.83;2.10;;;10.50;99.90;;;9.84;100.00;98359.00;4185090;28;20063;-81
2024/03/31 08:28:17;;;;;;;2.70;2.03;;;10.60;99.90;;;9.94;100.00;98354.09;4183611;28;20033;-80
2024/03/31 08:30:18;;;;;;;3.30;2.17;;;10.60;99.90;;;10.06;100.00;98358.72;4184008;28;20025;-81
2024/03/31 08:32:20;;;;;;;3.08;2.10;;;10.70;99.90;;;10.19;100.00;98356.81;4185187;28;20051;-81
2024/03/31 08:34:21;;;;;;;3.03;2.03;;;10.90;99.90;;;10.29;100.00;98354.53;4185085;28;20112;-80